sensor_id;sensor_type;location;lat;lon;timestamp;temperature;humidity
9837;DHT22;4957;51.412;6.724;2023-06-01T00:02:14;20.90;53.80
9837;DHT22;4957;51.412;6.724;2023-06-01T00:04:40;20.90;53.90
9837;DHT22;4957;51.412;6.724;2023-06-01T00:07:09;20.80;54.10
9837;DHT22;4957;51.412;6.724;2023-06-01T00:09:36;20.80;54.80
9837;DHT22;4957;51.412;6.724;2023-06-01T00:12:02;20.80;54.40
9837;DHT22;4957;51.412;6.724;2023-06-01T00:14:27;20.70;54.70
9837;DHT22;4957;51.412;6.724;2023-06-01T00:16:53;20.70;55.10
9837;DHT22;4957;51.412;6.724;2023-06-01T00:19:21;20.60;55.10
9837;DHT22;4957;51.412;6.724;2023-06-01T00:21:47;20.60;55.60
9837;DHT22;4957;51.412;6.724;2023-06-01T00:24:12;20.60;55.80
9837;DHT22;4957;51.412;6.724;2023-06-01T00:26:38;20.50;56.00
9837;DHT22;4957;51.412;6.724;2023-06-01T00:29:04;20.50;56.30
9837;DHT22;4957;51.412;6.724;2023-06-01T00:31:29;20.40;56.40
9837;DHT22;4957;51.412;6.724;2023-06-01T00:33:55;20.30;56.90
9837;DHT22;4957;51.412;6.724;2023-06-01T00:36:21;20.30;56.80
9837;DHT22;4957;51.412;6.724;2023-06-01T00:38:47;20.20;57.20
9837;DHT22;4957;51.412;6.724;2023-06-01T00:41:12;20.20;57.50
9837;DHT22;4957;51.412;6.724;2023-06-01T00:43:38;20.10;57.70
9837;DHT22;4957;51.412;6.724;2023-06-01T00:46:05;20.10;58.00
9837;DHT22;4957;51.412;6.724;2023-06-01T00:48:31;20.00;58.20
9837;DHT22;4957;51.412;6.724;2023-06-01T00:50:56;19.90;58.40
9837;DHT22;4957;51.412;6.724;2023-06-01T00:53:25;19.90;58.50
9837;DHT22;4957;51.412;6.724;2023-06-01T00:55:51;19.90;58.80
9837;DHT22;4957;51.412;6.724;2023-06-01T00:58:17;19.80;59.10
9837;DHT22;4957;51.412;6.724;2023-06-01T01:00:42;19.80;59.30
9837;DHT22;4957;51.412;6.724;2023-06-01T01:03:08;19.70;59.60
9837;DHT22;4957;51.412;6.724;2023-06-01T01:05:38;19.70;60.60
9837;DHT22;4957;51.412;6.724;2023-06-01T01:08:36;19.70;60.30
9837;DHT22;4957;51.412;6.724;2023-06-01T01:11:15;19.70;61.40
9837;DHT22;4957;51.412;6.724;2023-06-01T01:14:19;19.60;61.10
9837;DHT22;4957;51.412;6.724;2023-06-01T01:16:52;19.50;59.30
9837;DHT22;4957;51.412;6.724;2023-06-01T01:28:00;19.40;60.80
9837;DHT22;4957;51.412;6.724;2023-06-01T01:30:32;19.30;61.90
9837;DHT22;4957;51.412;6.724;2023-06-01T01:33:00;19.20;61.50
9837;DHT22;4957;51.412;6.724;2023-06-01T01:35:28;19.10;61.60
9837;DHT22;4957;51.412;6.724;2023-06-01T01:37:54;19.10;62.50
9837;DHT22;4957;51.412;6.724;2023-06-01T01:40:20;19.00;62.70
9837;DHT22;4957;51.412;6.724;2023-06-01T01:42:46;19.00;63.20
9837;DHT22;4957;51.412;6.724;2023-06-01T01:45:13;18.90;62.90
9837;DHT22;4957;51.412;6.724;2023-06-01T01:50:22;18.90;64.40
9837;DHT22;4957;51.412;6.724;2023-06-01T01:52:52;18.80;64.30
9837;DHT22;4957;51.412;6.724;2023-06-01T01:55:20;18.70;63.70
9837;DHT22;4957;51.412;6.724;2023-06-01T01:57:50;18.70;64.20
9837;DHT22;4957;51.412;6.724;2023-06-01T02:00:17;18.70;64.60
9837;DHT22;4957;51.412;6.724;2023-06-01T02:02:45;18.70;64.60
9837;DHT22;4957;51.412;6.724;2023-06-01T02:05:11;18.70;65.00
9837;DHT22;4957;51.412;6.724;2023-06-01T02:07:37;18.60;65.70
9837;DHT22;4957;51.412;6.724;2023-06-01T02:10:03;18.60;65.50
9837;DHT22;4957;51.412;6.724;2023-06-01T02:12:29;18.50;65.20
9837;DHT22;4957;51.412;6.724;2023-06-01T02:14:55;18.50;65.50
9837;DHT22;4957;51.412;6.724;2023-06-01T02:17:21;18.40;65.30
9837;DHT22;4957;51.412;6.724;2023-06-01T02:19:47;18.30;65.20
9837;DHT22;4957;51.412;6.724;2023-06-01T02:22:13;18.30;65.60
9837;DHT22;4957;51.412;6.724;2023-06-01T02:24:39;18.20;65.70
9837;DHT22;4957;51.412;6.724;2023-06-01T02:27:05;18.10;66.30
9837;DHT22;4957;51.412;6.724;2023-06-01T02:29:31;18.10;66.40
9837;DHT22;4957;51.412;6.724;2023-06-01T02:31:57;18.10;66.70
9837;DHT22;4957;51.412;6.724;2023-06-01T02:34:22;18.10;67.10
9837;DHT22;4957;51.412;6.724;2023-06-01T02:36:48;18.00;67.00
9837;DHT22;4957;51.412;6.724;2023-06-01T02:39:15;18.00;67.50
9837;DHT22;4957;51.412;6.724;2023-06-01T02:41:41;18.00;67.80
9837;DHT22;4957;51.412;6.724;2023-06-01T02:44:06;17.90;67.40
9837;DHT22;4957;51.412;6.724;2023-06-01T02:46:32;17.80;68.20
9837;DHT22;4957;51.412;6.724;2023-06-01T02:48:58;17.70;68.10
9837;DHT22;4957;51.412;6.724;2023-06-01T02:51:23;17.60;68.80
9837;DHT22;4957;51.412;6.724;2023-06-01T02:53:49;17.60;69.20
9837;DHT22;4957;51.412;6.724;2023-06-01T02:56:15;17.60;69.40
9837;DHT22;4957;51.412;6.724;2023-06-01T02:58:40;17.50;69.80
9837;DHT22;4957;51.412;6.724;2023-06-01T03:01:07;17.50;69.50
9837;DHT22;4957;51.412;6.724;2023-06-01T03:03:37;17.40;70.10
9837;DHT22;4957;51.412;6.724;2023-06-01T03:06:04;17.40;69.90
9837;DHT22;4957;51.412;6.724;2023-06-01T03:08:31;17.30;70.00
9837;DHT22;4957;51.412;6.724;2023-06-01T03:10:57;17.30;70.70
9837;DHT22;4957;51.412;6.724;2023-06-01T03:13:23;17.30;70.40
9837;DHT22;4957;51.412;6.724;2023-06-01T03:15:48;17.20;71.20
9837;DHT22;4957;51.412;6.724;2023-06-01T03:18:15;17.20;71.60
9837;DHT22;4957;51.412;6.724;2023-06-01T03:20:41;17.10;70.90
9837;DHT22;4957;51.412;6.724;2023-06-01T03:23:07;17.10;71.20
9837;DHT22;4957;51.412;6.724;2023-06-01T03:25:32;17.10;71.50
9837;DHT22;4957;51.412;6.724;2023-06-01T03:27:58;17.10;72.20
9837;DHT22;4957;51.412;6.724;2023-06-01T03:30:24;17.10;72.30
9837;DHT22;4957;51.412;6.724;2023-06-01T03:32:50;17.10;72.20
9837;DHT22;4957;51.412;6.724;2023-06-01T03:35:16;17.10;72.30
9837;DHT22;4957;51.412;6.724;2023-06-01T03:37:43;17.00;72.50
9837;DHT22;4957;51.412;6.724;2023-06-01T03:40:09;17.00;72.80
9837;DHT22;4957;51.412;6.724;2023-06-01T03:42:45;17.00;72.90
9837;DHT22;4957;51.412;6.724;2023-06-01T03:45:12;16.90;73.30
9837;DHT22;4957;51.412;6.724;2023-06-01T03:47:39;16.90;72.90
9837;DHT22;4957;51.412;6.724;2023-06-01T03:50:07;16.90;73.20
9837;DHT22;4957;51.412;6.724;2023-06-01T03:52:34;16.90;73.60
9837;DHT22;4957;51.412;6.724;2023-06-01T03:55:01;16.90;73.30
9837;DHT22;4957;51.412;6.724;2023-06-01T03:57:27;16.90;73.30
9837;DHT22;4957;51.412;6.724;2023-06-01T03:59:53;16.90;73.70
9837;DHT22;4957;51.412;6.724;2023-06-01T04:02:19;16.80;73.70
9837;DHT22;4957;51.412;6.724;2023-06-01T04:04:45;16.80;73.90
9837;DHT22;4957;51.412;6.724;2023-06-01T04:07:12;16.80;73.20
9837;DHT22;4957;51.412;6.724;2023-06-01T04:09:41;16.80;73.50
9837;DHT22;4957;51.412;6.724;2023-06-01T04:12:06;16.80;74.00
9837;DHT22;4957;51.412;6.724;2023-06-01T04:14:32;16.80;73.80
9837;DHT22;4957;51.412;6.724;2023-06-01T04:16:58;16.80;73.80
9837;DHT22;4957;51.412;6.724;2023-06-01T04:19:23;16.70;74.50
9837;DHT22;4957;51.412;6.724;2023-06-01T04:21:49;16.70;74.80
9837;DHT22;4957;51.412;6.724;2023-06-01T04:24:15;16.60;75.10
9837;DHT22;4957;51.412;6.724;2023-06-01T04:26:41;16.60;74.40
9837;DHT22;4957;51.412;6.724;2023-06-01T04:29:07;16.60;74.30
9837;DHT22;4957;51.412;6.724;2023-06-01T04:31:34;16.60;74.30
9837;DHT22;4957;51.412;6.724;2023-06-01T04:34:00;16.60;74.00
9837;DHT22;4957;51.412;6.724;2023-06-01T04:36:30;16.60;75.00
9837;DHT22;4957;51.412;6.724;2023-06-01T04:38:58;16.60;74.20
9837;DHT22;4957;51.412;6.724;2023-06-01T04:41:23;16.60;73.80
9837;DHT22;4957;51.412;6.724;2023-06-01T04:43:53;16.60;73.80
9837;DHT22;4957;51.412;6.724;2023-06-01T04:46:20;16.60;73.90
9837;DHT22;4957;51.412;6.724;2023-06-01T04:48:46;16.60;73.90
9837;DHT22;4957;51.412;6.724;2023-06-01T04:51:14;16.60;73.90
9837;DHT22;4957;51.412;6.724;2023-06-01T04:53:47;16.60;73.90
9837;DHT22;4957;51.412;6.724;2023-06-01T04:56:26;16.60;74.20
9837;DHT22;4957;51.412;6.724;2023-06-01T04:58:53;16.60;74.00
9837;DHT22;4957;51.412;6.724;2023-06-01T05:01:21;16.50;71.70
9837;DHT22;4957;51.412;6.724;2023-06-01T05:03:51;16.60;73.40
9837;DHT22;4957;51.412;6.724;2023-06-01T05:06:19;16.60;73.40
9837;DHT22;4957;51.412;6.724;2023-06-01T05:08:44;16.60;73.50
9837;DHT22;4957;51.412;6.724;2023-06-01T05:11:10;16.60;73.40
9837;DHT22;4957;51.412;6.724;2023-06-01T05:13:39;16.60;73.20
9837;DHT22;4957;51.412;6.724;2023-06-01T05:16:06;16.70;73.30
9837;DHT22;4957;51.412;6.724;2023-06-01T05:18:33;16.60;73.30
9837;DHT22;4957;51.412;6.724;2023-06-01T05:20:59;16.70;73.40
9837;DHT22;4957;51.412;6.724;2023-06-01T05:23:26;16.70;73.30
9837;DHT22;4957;51.412;6.724;2023-06-01T05:25:53;16.70;73.10
9837;DHT22;4957;51.412;6.724;2023-06-01T05:28:20;16.70;72.80
9837;DHT22;4957;51.412;6.724;2023-06-01T05:30:46;16.70;72.90
9837;DHT22;4957;51.412;6.724;2023-06-01T05:33:12;16.80;73.10
9837;DHT22;4957;51.412;6.724;2023-06-01T05:35:38;16.80;72.90
9837;DHT22;4957;51.412;6.724;2023-06-01T05:38:05;16.80;72.80
9837;DHT22;4957;51.412;6.724;2023-06-01T05:40:30;16.80;72.60
9837;DHT22;4957;51.412;6.724;2023-06-01T05:42:56;16.80;72.40
9837;DHT22;4957;51.412;6.724;2023-06-01T05:45:22;16.80;73.20
9837;DHT22;4957;51.412;6.724;2023-06-01T05:47:48;16.90;72.50
9837;DHT22;4957;51.412;6.724;2023-06-01T05:50:13;16.80;72.10
9837;DHT22;4957;51.412;6.724;2023-06-01T05:52:39;16.90;72.50
9837;DHT22;4957;51.412;6.724;2023-06-01T05:55:08;16.90;72.50
9837;DHT22;4957;51.412;6.724;2023-06-01T05:57:33;16.90;73.10
9837;DHT22;4957;51.412;6.724;2023-06-01T05:59:59;16.90;72.60
9837;DHT22;4957;51.412;6.724;2023-06-01T06:02:25;16.90;73.10
9837;DHT22;4957;51.412;6.724;2023-06-01T06:04:51;17.00;72.80
9837;DHT22;4957;51.412;6.724;2023-06-01T06:07:16;17.00;72.90
9837;DHT22;4957;51.412;6.724;2023-06-01T06:09:42;17.10;73.00
9837;DHT22;4957;51.412;6.724;2023-06-01T06:12:08;17.10;72.60
9837;DHT22;4957;51.412;6.724;2023-06-01T06:14:33;17.20;72.70
9837;DHT22;4957;51.412;6.724;2023-06-01T06:16:59;17.20;72.40
9837;DHT22;4957;51.412;6.724;2023-06-01T06:19:25;17.30;72.20
9837;DHT22;4957;51.412;6.724;2023-06-01T06:21:51;17.30;72.20
9837;DHT22;4957;51.412;6.724;2023-06-01T06:24:17;17.40;72.30
9837;DHT22;4957;51.412;6.724;2023-06-01T06:26:42;17.40;72.30
9837;DHT22;4957;51.412;6.724;2023-06-01T06:29:08;17.50;72.40
9837;DHT22;4957;51.412;6.724;2023-06-01T06:31:34;17.60;72.80
9837;DHT22;4957;51.412;6.724;2023-06-01T06:34:00;17.70;73.10
9837;DHT22;4957;51.412;6.724;2023-06-01T06:36:26;17.80;72.90
9837;DHT22;4957;51.412;6.724;2023-06-01T06:38:52;17.90;72.80
9837;DHT22;4957;51.412;6.724;2023-06-01T06:41:17;18.00;72.30
9837;DHT22;4957;51.412;6.724;2023-06-01T06:43:43;18.00;71.80
9837;DHT22;4957;51.412;6.724;2023-06-01T06:46:08;18.20;71.70
9837;DHT22;4957;51.412;6.724;2023-06-01T06:48:34;18.30;71.60
9837;DHT22;4957;51.412;6.724;2023-06-01T06:51:01;18.40;71.60
9837;DHT22;4957;51.412;6.724;2023-06-01T06:53:27;18.50;71.00
9837;DHT22;4957;51.412;6.724;2023-06-01T06:55:52;18.60;70.70
9837;DHT22;4957;51.412;6.724;2023-06-01T06:58:18;18.70;70.60
9837;DHT22;4957;51.412;6.724;2023-06-01T07:00:43;18.80;70.00
9837;DHT22;4957;51.412;6.724;2023-06-01T07:03:09;18.90;70.30
9837;DHT22;4957;51.412;6.724;2023-06-01T07:05:35;19.10;69.60
9837;DHT22;4957;51.412;6.724;2023-06-01T07:08:01;19.20;69.30
9837;DHT22;4957;51.412;6.724;2023-06-01T07:10:27;19.40;69.10
9837;DHT22;4957;51.412;6.724;2023-06-01T07:12:53;19.50;68.60
9837;DHT22;4957;51.412;6.724;2023-06-01T07:15:18;19.70;68.20
9837;DHT22;4957;51.412;6.724;2023-06-01T07:17:44;19.80;67.80
9837;DHT22;4957;51.412;6.724;2023-06-01T07:20:10;20.00;67.00
9837;DHT22;4957;51.412;6.724;2023-06-01T07:22:39;20.10;66.60
9837;DHT22;4957;51.412;6.724;2023-06-01T07:25:05;20.30;66.50
9837;DHT22;4957;51.412;6.724;2023-06-01T07:27:31;20.50;65.80
9837;DHT22;4957;51.412;6.724;2023-06-01T07:30:01;20.60;65.00
9837;DHT22;4957;51.412;6.724;2023-06-01T07:32:27;20.80;64.60
9837;DHT22;4957;51.412;6.724;2023-06-01T07:34:53;21.00;64.10
9837;DHT22;4957;51.412;6.724;2023-06-01T07:37:18;21.20;63.30
9837;DHT22;4957;51.412;6.724;2023-06-01T07:39:50;21.40;62.70
9837;DHT22;4957;51.412;6.724;2023-06-01T07:42:16;21.60;62.20
9837;DHT22;4957;51.412;6.724;2023-06-01T07:44:42;21.80;61.10
9837;DHT22;4957;51.412;6.724;2023-06-01T07:47:08;22.10;60.30
9837;DHT22;4957;51.412;6.724;2023-06-01T07:49:33;22.30;59.40
9837;DHT22;4957;51.412;6.724;2023-06-01T07:52:03;22.50;58.70
9837;DHT22;4957;51.412;6.724;2023-06-01T07:54:30;22.60;58.20
9837;DHT22;4957;51.412;6.724;2023-06-01T07:56:56;22.90;57.70
9837;DHT22;4957;51.412;6.724;2023-06-01T07:59:22;23.00;57.00
9837;DHT22;4957;51.412;6.724;2023-06-01T08:01:50;23.20;56.30
9837;DHT22;4957;51.412;6.724;2023-06-01T08:04:17;23.30;55.70
9837;DHT22;4957;51.412;6.724;2023-06-01T08:06:46;23.60;54.70
9837;DHT22;4957;51.412;6.724;2023-06-01T08:09:12;23.90;54.40
9837;DHT22;4957;51.412;6.724;2023-06-01T08:11:38;24.00;54.10
9837;DHT22;4957;51.412;6.724;2023-06-01T08:14:04;24.10;53.70
9837;DHT22;4957;51.412;6.724;2023-06-01T08:16:33;24.30;53.50
9837;DHT22;4957;51.412;6.724;2023-06-01T08:18:58;24.40;53.10
9837;DHT22;4957;51.412;6.724;2023-06-01T08:21:25;24.60;52.50
9837;DHT22;4957;51.412;6.724;2023-06-01T08:23:52;24.80;51.90
9837;DHT22;4957;51.412;6.724;2023-06-01T08:26:20;25.00;51.10
9837;DHT22;4957;51.412;6.724;2023-06-01T08:28:46;25.20;50.50
9837;DHT22;4957;51.412;6.724;2023-06-01T08:31:21;25.50;50.10
9837;DHT22;4957;51.412;6.724;2023-06-01T08:33:48;25.60;49.60
9837;DHT22;4957;51.412;6.724;2023-06-01T08:36:15;25.70;49.30
9837;DHT22;4957;51.412;6.724;2023-06-01T08:38:41;25.90;49.00
9837;DHT22;4957;51.412;6.724;2023-06-01T08:41:31;26.00;47.90
9837;DHT22;4957;51.412;6.724;2023-06-01T08:44:06;26.20;47.00
9837;DHT22;4957;51.412;6.724;2023-06-01T08:46:33;26.40;47.00
9837;DHT22;4957;51.412;6.724;2023-06-01T08:49:02;26.60;46.60
9837;DHT22;4957;51.412;6.724;2023-06-01T08:51:32;26.70;46.10
9837;DHT22;4957;51.412;6.724;2023-06-01T08:54:00;26.90;45.50
9837;DHT22;4957;51.412;6.724;2023-06-01T08:56:28;27.00;45.20
9837;DHT22;4957;51.412;6.724;2023-06-01T08:58:55;27.20;44.90
9837;DHT22;4957;51.412;6.724;2023-06-01T09:01:22;27.40;44.20
9837;DHT22;4957;51.412;6.724;2023-06-01T09:03:49;27.50;44.20
9837;DHT22;4957;51.412;6.724;2023-06-01T09:06:16;27.70;43.70
9837;DHT22;4957;51.412;6.724;2023-06-01T09:08:42;27.80;43.20
9837;DHT22;4957;51.412;6.724;2023-06-01T09:11:08;27.90;42.90
9837;DHT22;4957;51.412;6.724;2023-06-01T09:13:37;28.10;42.70
9837;DHT22;4957;51.412;6.724;2023-06-01T09:16:03;28.20;42.60
9837;DHT22;4957;51.412;6.724;2023-06-01T09:18:29;28.40;42.30
9837;DHT22;4957;51.412;6.724;2023-06-01T09:21:13;28.50;42.00
9837;DHT22;4957;51.412;6.724;2023-06-01T09:23:39;28.70;41.00
9837;DHT22;4957;51.412;6.724;2023-06-01T09:26:11;28.90;41.10
9837;DHT22;4957;51.412;6.724;2023-06-01T09:28:56;29.00;40.70
9837;DHT22;4957;51.412;6.724;2023-06-01T09:31:44;29.20;39.90
9837;DHT22;4957;51.412;6.724;2023-06-01T09:34:12;29.30;39.40
9837;DHT22;4957;51.412;6.724;2023-06-01T09:36:41;29.50;39.10
9837;DHT22;4957;51.412;6.724;2023-06-01T09:39:09;29.60;38.90
9837;DHT22;4957;51.412;6.724;2023-06-01T09:44:14;30.00;38.20
9837;DHT22;4957;51.412;6.724;2023-06-01T09:46:47;30.10;38.30
9837;DHT22;4957;51.412;6.724;2023-06-01T09:49:19;30.30;37.90
9837;DHT22;4957;51.412;6.724;2023-06-01T09:51:46;30.50;37.80
9837;DHT22;4957;51.412;6.724;2023-06-01T09:54:24;30.60;37.70
9837;DHT22;4957;51.412;6.724;2023-06-01T09:56:52;30.80;37.00
9837;DHT22;4957;51.412;6.724;2023-06-01T09:59:19;30.90;37.00
9837;DHT22;4957;51.412;6.724;2023-06-01T10:01:50;31.10;36.80
9837;DHT22;4957;51.412;6.724;2023-06-01T10:04:27;31.30;36.20
9837;DHT22;4957;51.412;6.724;2023-06-01T10:06:55;31.50;36.00
9837;DHT22;4957;51.412;6.724;2023-06-01T10:09:22;31.60;36.00
9837;DHT22;4957;51.412;6.724;2023-06-01T10:11:52;31.80;35.60
9837;DHT22;4957;51.412;6.724;2023-06-01T10:14:23;32.00;35.50
9837;DHT22;4957;51.412;6.724;2023-06-01T10:16:50;32.10;35.50
9837;DHT22;4957;51.412;6.724;2023-06-01T10:19:17;32.30;36.00
9837;DHT22;4957;51.412;6.724;2023-06-01T10:21:44;32.40;35.30
9837;DHT22;4957;51.412;6.724;2023-06-01T10:24:13;32.50;34.90
9837;DHT22;4957;51.412;6.724;2023-06-01T10:29:21;32.90;34.50
9837;DHT22;4957;51.412;6.724;2023-06-01T10:31:47;33.00;34.60
9837;DHT22;4957;51.412;6.724;2023-06-01T10:34:12;33.10;34.20
9837;DHT22;4957;51.412;6.724;2023-06-01T10:39:28;33.40;33.30
9837;DHT22;4957;51.412;6.724;2023-06-01T10:42:38;33.60;33.30
9837;DHT22;4957;51.412;6.724;2023-06-01T10:44:46;33.70;33.30
9837;DHT22;4957;51.412;6.724;2023-06-01T10:52:27;34.10;31.90
9837;DHT22;4957;51.412;6.724;2023-06-01T10:57:35;34.40;32.20
9837;DHT22;4957;51.412;6.724;2023-06-01T11:03:02;34.70;31.20
9837;DHT22;4957;51.412;6.724;2023-06-01T11:05:40;34.80;31.10
9837;DHT22;4957;51.412;6.724;2023-06-01T11:08:08;35.00;31.00
9837;DHT22;4957;51.412;6.724;2023-06-01T11:10:57;35.10;30.80
9837;DHT22;4957;51.412;6.724;2023-06-01T11:19:04;35.40;30.00
9837;DHT22;4957;51.412;6.724;2023-06-01T11:26:37;35.70;29.90
9837;DHT22;4957;51.412;6.724;2023-06-01T11:29:20;35.80;29.90
9837;DHT22;4957;51.412;6.724;2023-06-01T11:31:54;35.90;29.90
9837;DHT22;4957;51.412;6.724;2023-06-01T11:36:55;36.10;29.20
9837;DHT22;4957;51.412;6.724;2023-06-01T11:39:25;36.20;29.50
9837;DHT22;4957;51.412;6.724;2023-06-01T11:42:02;36.30;29.30
9837;DHT22;4957;51.412;6.724;2023-06-01T11:44:30;36.40;29.00
9837;DHT22;4957;51.412;6.724;2023-06-01T11:46:57;36.50;29.30
9837;DHT22;4957;51.412;6.724;2023-06-01T11:49:24;36.50;29.10
9837;DHT22;4957;51.412;6.724;2023-06-01T11:51:50;36.60;29.10
9837;DHT22;4957;51.412;6.724;2023-06-01T11:54:22;36.70;29.10
9837;DHT22;4957;51.412;6.724;2023-06-01T11:56:47;36.80;28.90
9837;DHT22;4957;51.412;6.724;2023-06-01T11:59:13;36.80;28.80
9837;DHT22;4957;51.412;6.724;2023-06-01T12:01:43;37.00;28.70
9837;DHT22;4957;51.412;6.724;2023-06-01T12:04:18;37.00;28.40
9837;DHT22;4957;51.412;6.724;2023-06-01T12:06:44;37.10;28.50
9837;DHT22;4957;51.412;6.724;2023-06-01T12:09:12;37.20;28.50
9837;DHT22;4957;51.412;6.724;2023-06-01T12:11:39;37.20;28.40
9837;DHT22;4957;51.412;6.724;2023-06-01T12:14:06;37.30;28.30
9837;DHT22;4957;51.412;6.724;2023-06-01T12:17:00;37.40;28.30
9837;DHT22;4957;51.412;6.724;2023-06-01T12:19:30;37.40;27.80
9837;DHT22;4957;51.412;6.724;2023-06-01T12:21:58;37.50;28.40
9837;DHT22;4957;51.412;6.724;2023-06-01T12:24:32;37.60;28.20
9837;DHT22;4957;51.412;6.724;2023-06-01T12:26:59;37.60;27.80
9837;DHT22;4957;51.412;6.724;2023-06-01T12:29:44;37.70;27.70
9837;DHT22;4957;51.412;6.724;2023-06-01T12:32:12;37.80;27.30
9837;DHT22;4957;51.412;6.724;2023-06-01T12:34:41;37.90;27.70
9837;DHT22;4957;51.412;6.724;2023-06-01T12:37:20;37.90;27.70
9837;DHT22;4957;51.412;6.724;2023-06-01T12:39:53;37.90;27.30
9837;DHT22;4957;51.412;6.724;2023-06-01T12:42:19;38.00;27.40
9837;DHT22;4957;51.412;6.724;2023-06-01T12:44:55;38.10;27.60
9837;DHT22;4957;51.412;6.724;2023-06-01T12:47:20;38.10;27.20
9837;DHT22;4957;51.412;6.724;2023-06-01T12:50:06;38.10;27.50
9837;DHT22;4957;51.412;6.724;2023-06-01T12:52:32;38.10;27.40
9837;DHT22;4957;51.412;6.724;2023-06-01T12:54:58;38.10;27.70
9837;DHT22;4957;51.412;6.724;2023-06-01T12:57:23;38.20;27.70
9837;DHT22;4957;51.412;6.724;2023-06-01T12:59:49;38.20;27.60
9837;DHT22;4957;51.412;6.724;2023-06-01T13:02:15;38.20;27.40
9837;DHT22;4957;51.412;6.724;2023-06-01T13:04:42;38.20;27.00
9837;DHT22;4957;51.412;6.724;2023-06-01T13:07:09;38.20;27.20
9837;DHT22;4957;51.412;6.724;2023-06-01T13:09:34;38.20;27.40
9837;DHT22;4957;51.412;6.724;2023-06-01T13:12:01;38.20;27.50
9837;DHT22;4957;51.412;6.724;2023-06-01T13:14:29;38.20;27.10
9837;DHT22;4957;51.412;6.724;2023-06-01T13:16:55;38.10;27.10
9837;DHT22;4957;51.412;6.724;2023-06-01T13:19:21;38.10;27.20
9837;DHT22;4957;51.412;6.724;2023-06-01T13:21:47;38.00;26.80
9837;DHT22;4957;51.412;6.724;2023-06-01T13:24:13;38.00;27.00
9837;DHT22;4957;51.412;6.724;2023-06-01T13:26:39;37.90;26.80
9837;DHT22;4957;51.412;6.724;2023-06-01T13:29:04;37.90;27.10
9837;DHT22;4957;51.412;6.724;2023-06-01T13:31:32;37.80;27.20
9837;DHT22;4957;51.412;6.724;2023-06-01T13:33:58;37.70;27.80
9837;DHT22;4957;51.412;6.724;2023-06-01T13:36:24;37.70;27.40
9837;DHT22;4957;51.412;6.724;2023-06-01T13:38:50;37.60;27.10
9837;DHT22;4957;51.412;6.724;2023-06-01T13:41:15;37.50;27.60
9837;DHT22;4957;51.412;6.724;2023-06-01T13:43:41;37.40;27.20
9837;DHT22;4957;51.412;6.724;2023-06-01T13:46:07;37.30;27.50
9837;DHT22;4957;51.412;6.724;2023-06-01T13:48:35;37.30;27.60
9837;DHT22;4957;51.412;6.724;2023-06-01T13:51:00;37.20;27.20
9837;DHT22;4957;51.412;6.724;2023-06-01T13:53:26;37.10;27.40
9837;DHT22;4957;51.412;6.724;2023-06-01T13:55:52;37.00;27.70
9837;DHT22;4957;51.412;6.724;2023-06-01T13:58:18;36.90;27.70
9837;DHT22;4957;51.412;6.724;2023-06-01T14:00:43;36.80;28.00
9837;DHT22;4957;51.412;6.724;2023-06-01T14:03:09;36.70;27.70
9837;DHT22;4957;51.412;6.724;2023-06-01T14:05:35;36.60;27.90
9837;DHT22;4957;51.412;6.724;2023-06-01T14:08:01;36.60;27.70
9837;DHT22;4957;51.412;6.724;2023-06-01T14:10:27;36.50;28.00
9837;DHT22;4957;51.412;6.724;2023-06-01T14:12:53;36.30;28.00
9837;DHT22;4957;51.412;6.724;2023-06-01T14:15:19;36.20;28.20
9837;DHT22;4957;51.412;6.724;2023-06-01T14:17:45;36.10;28.20
9837;DHT22;4957;51.412;6.724;2023-06-01T14:20:10;36.00;28.10
9837;DHT22;4957;51.412;6.724;2023-06-01T14:22:36;35.90;28.20
9837;DHT22;4957;51.412;6.724;2023-06-01T14:25:02;35.80;28.50
9837;DHT22;4957;51.412;6.724;2023-06-01T14:27:28;35.70;28.40
9837;DHT22;4957;51.412;6.724;2023-06-01T14:29:54;35.60;28.30
9837;DHT22;4957;51.412;6.724;2023-06-01T14:32:20;35.50;28.50
9837;DHT22;4957;51.412;6.724;2023-06-01T14:34:45;35.50;28.50
9837;DHT22;4957;51.412;6.724;2023-06-01T14:37:11;35.40;28.60
9837;DHT22;4957;51.412;6.724;2023-06-01T14:39:39;35.30;28.70
9837;DHT22;4957;51.412;6.724;2023-06-01T14:42:05;35.20;28.50
9837;DHT22;4957;51.412;6.724;2023-06-01T14:44:30;35.20;28.70
9837;DHT22;4957;51.412;6.724;2023-06-01T14:46:56;35.10;28.70
9837;DHT22;4957;51.412;6.724;2023-06-01T14:49:22;35.00;29.00
9837;DHT22;4957;51.412;6.724;2023-06-01T14:51:47;35.00;28.80
9837;DHT22;4957;51.412;6.724;2023-06-01T14:54:13;35.00;28.80
9837;DHT22;4957;51.412;6.724;2023-06-01T14:56:38;34.90;28.80
9837;DHT22;4957;51.412;6.724;2023-06-01T14:59:04;34.80;28.90
9837;DHT22;4957;51.412;6.724;2023-06-01T15:01:30;34.80;29.00
9837;DHT22;4957;51.412;6.724;2023-06-01T15:03:55;34.80;29.00
9837;DHT22;4957;51.412;6.724;2023-06-01T15:06:21;34.70;29.20
9837;DHT22;4957;51.412;6.724;2023-06-01T15:08:47;34.70;29.30
9837;DHT22;4957;51.412;6.724;2023-06-01T15:11:12;34.60;29.20
9837;DHT22;4957;51.412;6.724;2023-06-01T15:13:39;34.60;29.30
9837;DHT22;4957;51.412;6.724;2023-06-01T15:16:07;34.60;29.40
9837;DHT22;4957;51.412;6.724;2023-06-01T15:18:33;34.50;29.30
9837;DHT22;4957;51.412;6.724;2023-06-01T15:20:59;34.50;29.50
9837;DHT22;4957;51.412;6.724;2023-06-01T15:23:25;34.40;29.40
9837;DHT22;4957;51.412;6.724;2023-06-01T15:25:52;34.30;29.60
9837;DHT22;4957;51.412;6.724;2023-06-01T15:28:18;34.20;29.60
9837;DHT22;4957;51.412;6.724;2023-06-01T15:30:44;34.20;29.60
9837;DHT22;4957;51.412;6.724;2023-06-01T15:33:10;34.20;29.60
9837;DHT22;4957;51.412;6.724;2023-06-01T15:35:35;34.20;29.60
9837;DHT22;4957;51.412;6.724;2023-06-01T15:38:01;34.10;29.90
9837;DHT22;4957;51.412;6.724;2023-06-01T15:40:27;34.10;30.00
9837;DHT22;4957;51.412;6.724;2023-06-01T15:42:53;34.00;30.00
9837;DHT22;4957;51.412;6.724;2023-06-01T15:45:18;34.00;30.20
9837;DHT22;4957;51.412;6.724;2023-06-01T15:47:44;34.00;30.20
9837;DHT22;4957;51.412;6.724;2023-06-01T15:50:10;34.00;30.00
9837;DHT22;4957;51.412;6.724;2023-06-01T15:52:36;34.00;30.00
9837;DHT22;4957;51.412;6.724;2023-06-01T15:55:01;34.00;30.00
9837;DHT22;4957;51.412;6.724;2023-06-01T15:57:27;33.90;30.00
9837;DHT22;4957;51.412;6.724;2023-06-01T15:59:53;33.90;30.10
9837;DHT22;4957;51.412;6.724;2023-06-01T16:02:19;33.80;30.00
9837;DHT22;4957;51.412;6.724;2023-06-01T16:04:44;33.70;31.00
9837;DHT22;4957;51.412;6.724;2023-06-01T16:07:10;33.60;30.20
9837;DHT22;4957;51.412;6.724;2023-06-01T16:09:36;33.60;30.50
9837;DHT22;4957;51.412;6.724;2023-06-01T16:12:02;33.40;30.40
9837;DHT22;4957;51.412;6.724;2023-06-01T16:14:28;33.40;30.70
9837;DHT22;4957;51.412;6.724;2023-06-01T16:16:53;33.30;30.80
9837;DHT22;4957;51.412;6.724;2023-06-01T16:19:19;33.30;30.90
9837;DHT22;4957;51.412;6.724;2023-06-01T16:21:45;33.30;30.70
9837;DHT22;4957;51.412;6.724;2023-06-01T16:24:10;33.20;30.90
9837;DHT22;4957;51.412;6.724;2023-06-01T16:26:36;33.30;31.20
9837;DHT22;4957;51.412;6.724;2023-06-01T16:29:02;33.20;31.40
9837;DHT22;4957;51.412;6.724;2023-06-01T16:31:28;33.20;31.10
9837;DHT22;4957;51.412;6.724;2023-06-01T16:33:54;33.10;31.20
9837;DHT22;4957;51.412;6.724;2023-06-01T16:36:19;33.20;31.20
9837;DHT22;4957;51.412;6.724;2023-06-01T16:38:45;33.10;31.20
9837;DHT22;4957;51.412;6.724;2023-06-01T16:41:11;33.10;31.50
9837;DHT22;4957;51.412;6.724;2023-06-01T16:43:36;33.00;31.40
9837;DHT22;4957;51.412;6.724;2023-06-01T16:46:02;33.00;31.90
9837;DHT22;4957;51.412;6.724;2023-06-01T16:48:28;33.00;32.00